Portada
METAR-TAF:

METAR-TAF

Aeroports :

Savoonga, Alaska, Estats Units d'Amèrica

latitud: 63-41N, longitud: 170-30W, altitud: 16 m

Observació

L'informe es va fer fa 2 hores i 25 minuts, a les 08:41 UTC
Vent 5 kt del Nord
Temperatura 0°C
Humitat 93%
Pressió 1020 hPa
Visibilitat: 1.6 km
Cel cobert a una alçada de 300 ft
boirina

METAR: PASA 230841Z AUTO 36005KT 1SM BR OVC003 00/M01 A3013 RMK AO2 FZRANO $

Hora: 03:06 (11:06 UTC)


TAF: manca

Observacions i pronòstics meteorològics de més de 4000 aeroports (METAR i TAF).

Les estacions disponibles són els punts grocs i vermells al mapa.

Posi el ratolí al punt desitjat per veure el nom de l'estació.

Feu clic per veure les observacions i els pronòstics meteorològics.

Per canviar el mapa: feu clic els botons verds amb una creu de color negre per apropar; al botó verd amb un guió per allunyar la imatge; o en les fletxes verdes per a mapes adjacents.


METAR-TAF: